.
WxDataArchive / Data Records for 2012-10-13
2012-10-12 October 2012 2012-10-14

Data Records for Saturday, 13 October 2012

Time	Temp	Chill	HIndex	Humid	Dewpt	 Wind 	HiWind	WindDir	Rain 	Barom 
-----	----	-----	------	-----	-----	------	------	-------	-----	----- 
00:00	39.3	39.3	39.3	68	29.6	0	2	68	0.00	30.380 
00:05	39.2	39.2	39.2	68	29.5	0	1	68	0.00	30.380 
00:10	39.1	39.1	39.1	68	29.4	0	2	68	0.00	30.380 
00:15	38.9	38.9	38.9	69	29.6	0	1	68	0.00	30.376 
00:20	38.8	38.8	38.8	69	29.5	0	1	68	0.00	30.376 
00:25	38.6	38.6	38.6	69	29.3	0	1	68	0.00	30.376 
00:30	38.6	38.6	38.6	69	29.3	0	1	68	0.00	30.367 
00:35	38.5	38.5	38.5	69	29.2	0	1	68	0.00	30.367 
00:40	38.5	38.5	38.5	70	29.6	0	1	68	0.00	30.367 
00:45	38.3	38.3	38.3	70	29.4	1	4	68	0.00	30.360 
00:50	38.3	38.3	38.3	70	29.4	0	1	90	0.00	30.360 
00:55	38.3	38.3	38.3	70	29.4	0	1	90	0.00	30.360 
01:00	38.3	38.3	38.3	70	29.4	0	2	90	0.00	30.349 
01:05	38.2	38.2	38.2	70	29.3	0	1	90	0.00	30.349 
01:10	38.2	38.2	38.2	71	29.6	0	2	90	0.00	30.349 
01:15	38.0	38.0	38.0	71	29.4	0	1	90	0.00	30.351 
01:20	37.9	37.9	37.9	71	29.4	1	2	90	0.00	30.351 
01:25	37.9	37.9	37.9	71	29.4	1	4	90	0.00	30.351 
01:30	37.9	37.9	37.9	72	29.7	0	1	90	0.00	30.352 
01:35	37.8	37.8	37.8	72	29.6	0	1	90	0.00	30.352 
01:40	37.8	37.8	37.8	72	29.6	0	3	90	0.00	30.352 
01:45	37.6	37.6	37.6	73	29.7	0	3	90	0.00	30.343 
01:50	37.5	37.5	37.5	73	29.6	0	3	90	0.00	30.343 
01:55	37.5	37.5	37.5	73	29.6	0	2	90	0.00	30.343 
02:00	37.3	37.3	37.3	73	29.5	0	1	90	0.00	30.340 
02:05	37.2	37.2	37.2	74	29.7	0	1	90	0.00	30.340 
02:10	37.0	37.0	37.0	74	29.5	0	2	90	0.00	30.340 
02:15	36.9	36.9	36.9	75	29.7	0	1	90	0.00	30.336 
02:20	36.8	36.8	36.8	75	29.6	0	0	---	0.00	30.336 
02:25	36.5	36.5	36.5	75	29.3	0	0	---	0.00	30.336 
02:30	36.2	36.2	36.2	76	29.4	0	1	90	0.00	30.335 
02:35	36.2	36.2	36.2	77	29.7	0	1	90	0.00	30.335 
02:40	36.2	36.2	36.2	77	29.7	0	1	90	0.00	30.335 
02:45	36.0	36.0	36.0	78	29.8	0	1	90	0.00	30.322 
02:50	36.0	36.0	36.0	78	29.8	0	2	90	0.00	30.322 
02:55	36.0	36.0	36.0	78	29.8	0	2	90	0.00	30.322 
03:00	36.0	36.0	36.0	78	29.8	0	2	90	0.00	30.312 
03:05	36.0	36.0	36.0	78	29.8	0	1	90	0.00	30.312 
03:10	36.0	36.0	36.0	78	29.8	0	1	90	0.00	30.312 
03:15	35.9	35.9	35.9	78	29.7	0	1	90	0.00	30.309 
03:20	35.9	35.9	35.9	79	30.0	0	1	90	0.00	30.309 
03:25	35.8	35.8	35.8	79	29.9	0	1	90	0.00	30.309 
03:30	35.6	35.6	35.6	79	29.7	0	0	---	0.00	30.317 
03:35	35.5	35.5	35.5	79	29.6	0	0	---	0.00	30.317 
03:40	35.3	35.3	35.3	79	29.4	0	0	---	0.00	30.317 
03:45	35.0	35.0	35.0	80	29.5	0	0	---	0.00	30.317 
03:50	34.9	34.9	34.9	80	29.4	0	0	---	0.00	30.317 
03:55	34.6	34.6	34.6	81	29.4	0	0	---	0.00	30.317 
04:00	34.4	34.4	34.4	81	29.2	0	0	---	0.00	30.309 
04:05	34.1	34.1	34.1	81	28.9	0	0	---	0.00	30.309 
04:10	34.1	34.1	34.1	82	29.2	0	0	---	0.00	30.309 
04:15	34.1	34.1	34.1	83	29.5	0	0	---	0.00	30.303 
04:20	34.3	34.3	34.3	84	30.0	0	0	---	0.00	30.303 
04:25	34.3	34.3	34.3	84	30.0	0	0	---	0.00	30.303 
04:30	34.3	34.3	34.3	84	30.0	0	0	---	0.00	30.312 
04:35	34.3	34.3	34.3	84	30.0	0	1	90	0.00	30.312 
04:40	34.4	34.4	34.4	84	30.1	0	1	90	0.00	30.312 
04:45	34.7	34.7	34.7	84	30.4	0	1	90	0.00	30.303 
04:50	34.9	34.9	34.9	84	30.6	0	1	90	0.00	30.303 
04:55	35.0	35.0	35.0	83	30.4	0	1	90	0.00	30.303 
05:00	35.2	35.2	35.2	83	30.6	0	1	90	0.00	30.307 
05:05	35.2	35.2	35.2	83	30.6	0	0	---	0.00	30.307 
05:10	35.3	35.3	35.3	83	30.7	0	0	---	0.00	30.307 
05:15	35.3	35.3	35.3	83	30.7	0	0	---	0.00	30.301 
05:20	35.3	35.3	35.3	82	30.4	0	1	90	0.00	30.301 
05:25	35.3	35.3	35.3	82	30.4	0	1	90	0.00	30.301 
05:30	35.3	35.3	35.3	83	30.7	0	1	90	0.00	30.298 
05:35	35.3	35.3	35.3	83	30.7	0	1	90	0.00	30.298 
05:40	35.3	35.3	35.3	83	30.7	0	1	90	0.00	30.298 
05:45	35.2	35.2	35.2	83	30.6	0	1	90	0.00	30.287 
05:50	35.2	35.2	35.2	83	30.6	0	1	90	0.00	30.287 
05:55	35.2	35.2	35.2	83	30.6	0	1	90	0.00	30.287 
06:00	35.3	35.3	35.3	83	30.7	0	1	90	0.00	30.279 
06:05	35.3	35.3	35.3	83	30.7	0	1	90	0.00	30.279 
06:10	35.5	35.5	35.5	83	30.9	0	1	90	0.00	30.279 
06:15	35.5	35.5	35.5	83	30.9	0	1	90	0.00	30.267 
06:20	35.6	35.6	35.6	83	31.0	0	1	90	0.00	30.267 
06:25	35.8	35.8	35.8	82	30.9	0	2	90	0.00	30.267 
06:30	35.9	35.9	35.9	82	31.0	0	1	90	0.00	30.256 
06:35	35.9	35.9	35.9	81	30.6	0	1	90	0.00	30.256 
06:40	36.0	36.0	36.0	81	30.7	0	1	90	0.00	30.256 
06:45	36.0	36.0	36.0	81	30.7	0	2	90	0.00	30.245 
06:50	36.2	36.2	36.2	81	30.9	0	3	90	0.00	30.245 
06:55	36.2	36.2	36.2	81	30.9	0	2	90	0.00	30.245 
07:00	36.2	36.2	36.2	81	30.9	0	2	90	0.00	30.240 
07:05	36.2	36.2	36.2	80	30.6	0	1	90	0.00	30.240 
07:10	36.3	36.3	36.3	80	30.7	0	1	90	0.00	30.240 
07:15	36.3	36.3	36.3	80	30.7	0	2	90	0.00	30.252 
07:20	36.5	36.5	36.5	80	30.9	0	2	90	0.00	30.252 
07:25	36.5	36.5	36.5	80	30.9	0	1	90	0.00	30.252 
07:30	36.6	36.6	36.6	80	31.0	0	1	90	0.00	30.246 
07:35	36.6	36.6	36.6	80	31.0	0	1	90	0.00	30.246 
07:40	36.6	36.6	36.6	80	31.0	0	1	90	0.00	30.246 
07:45	36.6	36.6	36.6	80	31.0	0	1	90	0.00	30.246 
07:50	36.6	36.6	36.6	80	31.0	0	1	90	0.00	30.246 
07:55	36.6	36.6	36.6	81	31.3	0	0	---	0.00	30.246 
08:00	36.8	36.8	36.8	81	31.5	0	1	90	0.00	30.246 
08:05	36.9	36.9	36.9	81	31.6	0	0	---	0.00	30.246 
08:10	37.0	37.0	37.0	80	31.4	0	1	90	0.00	30.246 
08:15	37.2	37.2	37.2	80	31.6	0	0	---	0.00	30.248 
08:20	37.3	37.3	37.3	80	31.7	0	1	90	0.00	30.248 
08:25	37.5	37.5	37.5	80	31.9	0	0	---	0.00	30.248 
08:30	37.6	37.6	37.6	80	32.0	0	1	90	0.00	30.249 
08:35	37.9	37.9	37.9	79	32.0	0	1	90	0.00	30.249 
08:40	38.2	38.2	38.2	79	32.3	0	1	90	0.00	30.249 
08:45	38.6	38.6	38.6	79	32.7	0	1	90	0.00	30.238 
08:50	39.1	39.1	39.1	78	32.8	0	1	90	0.00	30.238 
08:55	39.8	39.8	39.8	77	33.2	0	2	90	0.00	30.238 
09:00	40.5	40.5	40.5	75	33.2	0	1	90	0.00	30.231 
09:05	41.1	41.1	41.1	75	33.8	0	1	90	0.00	30.231 
09:10	41.5	41.5	41.5	74	33.8	0	1	90	0.00	30.231 
09:15	42.1	42.1	42.1	74	34.4	0	1	90	0.00	30.242 
09:20	42.5	42.5	42.5	73	34.5	0	1	90	0.00	30.242 
09:25	42.9	42.9	42.9	72	34.5	0	1	90	0.00	30.242 
09:30	43.1	43.1	43.1	72	34.7	0	1	90	0.00	30.220 
09:35	43.5	43.5	43.5	73	35.4	0	2	90	0.00	30.220 
09:40	43.8	43.8	43.8	73	35.7	0	2	90	0.00	30.220 
09:45	44.2	44.2	44.2	72	35.8	0	2	90	0.00	30.210 
09:50	44.8	44.8	44.8	72	36.3	0	2	90	0.00	30.210 
09:55	45.2	45.2	45.2	71	36.4	0	2	90	0.00	30.210 
10:00	45.8	45.8	45.8	69	36.2	0	3	90	0.00	30.198 
10:05	46.4	46.4	46.4	68	36.4	1	3	90	0.00	30.198 
10:10	46.8	46.8	46.8	67	36.4	0	1	90	0.00	30.198 
10:15	47.3	47.3	47.3	66	36.5	1	3	90	0.00	30.192 
10:20	47.7	47.7	47.7	66	36.9	1	4	90	0.00	30.192 
10:25	48.0	48.0	48.0	66	37.2	0	3	90	0.00	30.192 
10:30	48.5	48.5	48.5	65	37.3	1	2	90	0.00	30.187 
10:35	48.8	48.8	48.8	65	37.6	0	1	90	0.00	30.187 
10:40	49.1	49.1	49.1	65	37.8	0	2	90	0.00	30.187 
10:45	49.4	49.4	49.4	64	37.7	1	4	90	0.00	30.179 
10:50	49.6	49.6	49.6	64	37.9	0	3	90	0.00	30.179 
10:55	49.9	49.9	49.9	65	38.6	0	1	90	0.00	30.179 
11:00	50.2	50.2	50.2	64	38.5	0	2	90	0.00	30.171 
11:05	50.5	50.5	50.5	63	38.4	1	3	90	0.00	30.171 
11:10	50.8	50.8	50.8	63	38.7	1	6	90	0.00	30.171 
11:15	51.0	51.0	51.0	63	38.9	1	3	90	0.00	30.160 
11:20	51.3	51.3	51.3	62	38.7	0	3	90	0.00	30.160 
11:25	51.6	51.6	51.6	62	39.0	0	1	90	0.00	30.160 
11:30	51.9	51.9	51.9	62	39.3	0	2	90	0.00	30.154 
11:35	52.0	52.0	52.0	62	39.4	0	3	90	0.00	30.154 
11:40	52.2	52.2	52.2	62	39.6	0	2	90	0.00	30.154 
11:45	52.5	52.5	52.5	62	39.9	0	2	90	0.00	30.153 
11:50	52.8	52.8	52.8	61	39.7	0	2	90	0.00	30.153 
11:55	52.8	52.8	52.8	61	39.7	0	2	90	0.00	30.153 
12:00	52.9	52.9	52.9	62	40.2	0	3	90	0.00	30.147 
12:05	52.9	52.9	52.9	62	40.2	0	2	90	0.00	30.147 
12:10	52.9	52.9	52.9	61	39.8	0	1	90	0.00	30.147 
12:15	53.1	53.1	53.1	61	40.0	0	2	90	0.00	30.141 
12:20	53.3	53.3	53.3	61	40.2	1	2	90	0.00	30.141 
12:25	53.5	53.5	53.5	61	40.4	0	1	90	0.00	30.141 
12:30	53.6	53.6	53.6	62	40.9	0	1	90	0.00	30.139 
12:35	53.8	53.8	53.8	62	41.1	0	0	---	0.00	30.139 
12:40	53.9	53.9	53.9	62	41.2	0	1	90	0.00	30.139 
12:45	54.1	54.1	54.1	62	41.4	1	3	90	0.00	30.127 
12:50	54.2	54.2	54.2	61	41.0	0	2	90	0.00	30.127 
12:55	54.4	54.4	54.4	61	41.2	0	2	90	0.00	30.127 
13:00	54.7	54.7	54.7	61	41.5	0	2	90	0.00	30.124 
13:05	55.0	55.0	55.0	61	41.8	0	1	90	0.00	30.124 
13:10	55.4	55.4	55.4	61	42.2	0	2	90	0.00	30.124 
13:15	56.0	56.0	56.0	60	42.3	0	1	90	0.00	30.109 
13:20	56.5	56.5	56.5	58	41.9	0	2	90	0.00	30.109 
13:25	56.7	56.7	56.7	59	42.5	0	2	90	0.00	30.109 
13:30	57.0	57.0	57.0	59	42.8	0	1	90	0.00	30.098 
13:35	57.5	57.5	57.5	59	43.3	0	2	90	0.00	30.098 
13:40	57.8	57.8	57.8	58	43.1	0	3	90	0.00	30.098 
13:45	58.1	58.1	58.1	58	43.4	0	1	90	0.00	30.089 
13:50	58.4	58.4	58.4	58	43.7	0	2	90	0.00	30.089 
13:55	58.6	58.6	58.6	58	43.9	1	4	90	0.00	30.089 
14:00	58.9	58.9	58.9	59	44.6	1	3	90	0.00	30.067 
14:05	58.9	58.9	58.9	58	44.1	0	3	90	0.00	30.067 
14:10	59.0	59.0	59.0	58	44.2	0	2	90	0.00	30.067 
14:15	59.2	59.2	59.2	58	44.4	0	2	90	0.00	30.058 
14:20	59.3	59.3	59.3	58	44.5	0	3	90	0.00	30.058 
14:25	59.5	59.5	59.5	58	44.7	0	2	90	0.00	30.058 
14:30	59.6	59.6	59.6	59	45.3	0	0	---	0.00	30.047 
14:35	59.8	59.8	59.8	61	46.3	0	0	---	0.00	30.047 
14:40	59.9	59.9	59.9	62	46.8	0	0	---	0.00	30.047 
14:45	60.2	60.2	60.2	64	48.0	0	1	90	0.00	30.041 
14:50	60.5	60.5	60.5	64	48.3	0	1	90	0.00	30.041 
14:55	61.2	61.2	61.2	68	50.5	0	2	90	0.00	30.041 
15:00	61.3	61.3	61.3	69	51.0	0	1	90	0.00	30.038 
15:05	61.2	61.2	61.2	71	51.7	0	1	90	0.01	30.038 
15:10	61.0	61.0	61.0	73	52.3	0	1	90	0.00	30.038 
15:15	60.9	60.9	60.9	74	52.6	0	1	90	0.00	30.028 
15:20	61.0	61.0	61.0	74	52.6	0	1	90	0.00	30.028 
15:25	61.2	61.2	61.2	74	52.8	0	2	90	0.00	30.028 
15:30	61.2	61.2	61.2	73	52.5	0	3	248	0.00	30.026 
15:35	61.2	61.2	61.2	74	52.8	0	2	248	0.00	30.026 
15:40	60.9	60.9	60.9	75	52.9	0	3	248	0.00	30.026 
15:45	60.7	60.7	60.7	77	53.4	0	1	248	0.00	30.024 
15:50	60.4	60.4	60.4	78	53.5	0	1	248	0.01	30.024 
15:55	60.1	60.1	60.1	80	53.9	0	0	---	0.00	30.024 
16:00	59.8	59.8	59.8	81	54.0	0	2	248	0.01	30.025 
16:05	59.5	59.5	59.5	83	54.3	0	2	248	0.00	30.025 
16:10	59.2	59.2	59.2	85	54.7	0	1	248	0.01	30.025 
16:15	59.0	59.0	59.0	86	54.8	0	1	248	0.00	30.021 
16:20	58.9	58.9	58.9	87	55.0	0	1	248	0.01	30.021 
16:25	58.7	58.7	58.7	88	55.2	0	1	248	0.00	30.021 
16:30	58.6	58.6	58.6	88	55.1	0	1	248	0.01	30.010 
16:35	58.6	58.6	58.6	89	55.4	0	1	248	0.01	30.010 
16:40	58.6	58.6	58.6	90	55.7	0	1	248	0.00	30.010 
16:45	58.6	58.6	58.6	90	55.7	0	1	248	0.01	30.005 
16:50	58.4	58.4	58.4	91	55.8	0	2	248	0.00	30.005 
16:55	58.4	58.4	58.4	91	55.8	0	2	248	0.01	30.005 
17:00	58.4	58.4	58.4	91	55.8	0	1	248	0.00	30.002 
17:05	58.4	58.4	58.4	92	56.1	0	1	248	0.00	30.002 
17:10	58.4	58.4	58.4	92	56.1	0	0	---	0.00	30.002 
17:15	58.6	58.6	58.6	92	56.3	0	2	248	0.01	29.983 
17:20	58.6	58.6	58.6	92	56.3	0	3	315	0.01	29.983 
17:25	58.7	58.7	58.7	92	56.4	0	3	338	0.01	29.983 
17:30	58.7	58.7	58.7	92	56.4	0	3	68	0.01	29.978 
17:35	58.9	58.9	58.9	93	56.9	1	4	248	0.00	29.978 
17:40	59.0	59.0	59.0	93	57.0	0	3	225	0.01	29.978 
17:45	59.2	59.2	59.2	93	57.2	0	2	248	0.00	29.978 
17:50	59.3	59.3	59.3	93	57.3	1	3	248	0.01	29.978 
17:55	59.5	59.5	59.5	93	57.5	0	3	248	0.00	29.978 
18:00	59.6	59.6	59.6	93	57.6	0	3	270	0.00	29.976 
18:05	59.6	59.6	59.6	94	57.9	1	3	270	0.00	29.976 
18:10	59.6	59.6	59.6	94	57.9	1	5	248	0.01	29.976 
18:15	59.8	59.8	59.8	94	58.1	1	7	248	0.00	29.960 
18:20	59.8	59.8	59.8	94	58.1	1	11	22	0.01	29.960 
18:25	59.8	59.8	59.8	94	58.1	2	5	248	0.00	29.960 
18:30	59.8	59.8	59.8	94	58.1	1	4	248	0.00	29.952 
18:35	59.8	59.8	59.8	94	58.1	1	5	225	0.00	29.952 
18:40	59.9	59.9	59.9	94	58.2	1	6	248	0.00	29.952 
18:45	59.9	59.9	59.9	94	58.2	1	4	270	0.00	29.954 
18:50	59.9	59.9	59.9	94	58.2	1	5	270	0.00	29.954 
18:55	60.1	60.1	60.1	94	58.4	1	4	248	0.00	29.954 
19:00	60.1	60.1	60.1	94	58.4	1	4	270	0.00	29.945 
19:05	60.2	60.2	60.2	94	58.5	1	5	270	0.00	29.945 
19:10	60.2	60.2	60.2	94	58.5	0	4	270	0.00	29.945 
19:15	60.2	60.2	60.2	94	58.5	0	2	248	0.00	29.944 
19:20	60.4	60.4	60.4	94	58.7	0	4	315	0.00	29.944 
19:25	60.4	60.4	60.4	94	58.7	0	1	315	0.00	29.944 
19:30	60.5	60.5	60.5	94	58.8	0	2	225	0.00	29.941 
19:35	60.7	60.7	60.7	94	59.0	1	4	225	0.00	29.941 
19:40	60.9	60.9	60.9	94	59.2	0	2	248	0.00	29.941 
19:45	61.0	61.0	61.0	94	59.3	0	3	248	0.00	29.933 
19:50	61.2	61.2	61.2	94	59.5	0	3	248	0.00	29.933 
19:55	61.2	61.2	61.2	94	59.5	0	1	248	0.00	29.933 
20:00	61.2	61.2	61.2	94	59.5	0	1	248	0.00	29.934 
20:05	61.2	61.2	61.2	94	59.5	0	1	248	0.00	29.934 
20:10	61.3	61.3	61.3	94	59.6	0	1	248	0.00	29.934 
20:15	61.3	61.3	61.3	94	59.6	0	1	248	0.00	29.924 
20:20	61.3	61.3	61.3	94	59.6	0	2	248	0.00	29.924 
20:25	61.5	61.5	61.5	94	59.8	0	1	248	0.00	29.924 
20:30	61.6	61.6	61.6	94	59.9	1	3	45	0.00	29.934 
20:35	61.8	61.8	61.8	94	60.1	0	2	248	0.00	29.934 
20:40	62.0	62.0	62.0	94	60.2	0	2	248	0.00	29.934 
20:45	62.1	62.1	62.1	94	60.3	1	3	270	0.00	29.937 
20:50	62.1	62.1	62.1	94	60.3	0	3	225	0.00	29.937 
20:55	62.3	62.3	62.3	94	60.5	0	2	225	0.00	29.937 
21:00	62.4	62.4	62.4	94	60.6	1	4	225	0.00	29.940 
21:05	62.4	62.4	62.4	94	60.6	0	3	248	0.00	29.940 
21:10	62.6	62.6	62.6	94	60.8	0	4	248	0.00	29.940 
21:15	62.6	62.6	62.6	93	60.5	0	2	248	0.00	29.925 
21:20	62.7	62.7	62.7	93	60.6	0	5	248	0.00	29.925 
21:25	62.7	62.7	62.7	93	60.6	0	2	248	0.00	29.925 
21:30	62.7	62.7	62.7	92	60.3	0	2	225	0.00	29.931 
21:35	62.7	62.7	62.7	92	60.3	1	2	248	0.00	29.931 
21:40	62.9	62.9	62.9	92	60.5	0	1	270	0.00	29.931 
21:45	62.9	62.9	62.9	92	60.5	0	2	248	0.00	29.930 
21:50	62.9	62.9	62.9	92	60.5	0	1	248	0.00	29.930 
21:55	62.9	62.9	62.9	92	60.5	0	2	248	0.00	29.930 
22:00	63.1	63.1	63.1	91	60.4	0	3	270	0.00	29.934 
22:05	63.1	63.1	63.1	91	60.4	0	2	248	0.00	29.934 
22:10	63.2	63.2	63.2	91	60.5	0	2	248	0.00	29.934 
22:15	63.2	63.2	63.2	91	60.5	0	2	248	0.00	29.933 
22:20	63.2	63.2	63.2	91	60.5	0	7	292	0.00	29.933 
22:25	63.2	63.2	63.2	91	60.5	0	2	248	0.00	29.933 
22:30	63.4	63.4	63.4	91	60.7	0	4	248	0.00	29.930 
22:35	63.4	63.4	63.4	91	60.7	0	2	248	0.00	29.930 
22:40	63.5	63.5	63.5	91	60.8	1	4	248	0.00	29.930 
22:45	63.5	63.5	63.5	91	60.8	0	2	248	0.00	29.928 
22:50	63.5	63.5	63.5	91	60.8	0	3	248	0.00	29.928 
22:55	63.7	63.7	63.7	90	60.7	0	2	248	0.00	29.928 
23:00	63.7	63.7	63.7	91	61.0	1	4	248	0.00	29.924 
23:05	63.9	63.9	63.9	91	61.2	0	2	248	0.00	29.924 
23:10	64.0	64.0	64.0	90	61.0	1	4	248	0.00	29.924 
23:15	64.0	64.0	64.0	90	61.0	0	3	248	0.00	29.919 
23:20	64.2	64.2	64.2	90	61.2	0	3	248	0.00	29.919 
23:25	64.2	64.2	64.2	90	61.2	0	2	248	0.00	29.919 
23:30	64.3	64.3	64.3	90	61.3	0	4	248	0.00	29.912 
23:35	64.3	64.3	64.3	90	61.3	0	2	248	0.00	29.912 
23:40	64.3	64.3	64.3	90	61.3	0	4	248	0.00	29.912 
23:45	64.3	64.3	64.3	90	61.3	0	4	225	0.00	29.910 
23:50	64.3	64.3	64.3	90	61.3	0	1	225	0.00	29.910 
23:55	64.3	64.3	64.3	90	61.3	0	1	225	0.00	29.910 

CoCoRaHS
IN-AL-39
A2 Web Hosting
Creative Commons License
GoDaddy
search engine by freefind advanced

loaded 2018-11-15 13:30:37 • last modified 2010-11-18 10:43:29
Privacy PolicyDisclaimer
• wx.awcolley.com is powered by PmWiki v.2002016 •
• all content (unless otherwise noted) © 2018 A W Colley